Historique des mesures à Cassis (13260), France
Quotidien Résumé Septembre 20, 2017 Unités:  Métrique    US   Métrique/US
« Précédent (Jour)
Suivant (Jour) »
Quotidien Hebdomadaire Mensuel Annuel Période au choix
  Maximum: Minimum: Moyenne:
Température: TemperatureC °C 12.9 °C 16.4 °C
Point de rosée: DewpointC °C 5.9 °C 6.5 °C
Humidité: Humidity % 39 % 49 %
Vitesse du vent: 0 km/h 4.2 km/h 18.8 km/h
Rafales: 0 km/h - -
Vent:- - SW
Pression: PressurehPa hPa 1012.8 hPa -
Précipitations: 0.0 mm    
Historical Graphs
 
 
Mesures pour : Septembre 20, 2017
Heure Temperature Point de rosée Pression Vent Vitesse du vent Rafales Humidité Pluie (par heure) Conditions
TemperatureC °C DewpointC °C PressurehPa hPa Calm     Humidity % HourlyPrecipMM mm SoftwareType W/m2
00:11 15.0 °C 6.3 °C 1013.1 hPa NW 52 km/h 52 km/h 56 % 0.0 mm open2300-1.11 W/m2
01:12 14.8 °C 6.3 °C 1013.1 hPa North 37.5 km/h 42.2 km/h 57 % 0.0 mm open2300-1.11 W/m2
02:11 14.5 °C 6.1 °C 1013.4 hPa NNE 5.6 km/h 14 km/h 57 % 0.0 mm open2300-1.11 W/m2
03:11 13.8 °C 6.7 °C 1012.8 hPa NNE 26.7 km/h 54.9 km/h 62 % 0.0 mm open2300-1.11 W/m2
04:11 13.6 °C 6.7 °C 1012.8 hPa NW 37 km/h 55.7 km/h 63 % 0.0 mm open2300-1.11 W/m2
06:11 13.3 °C 6.6 °C 1012.8 hPa NNW 20.3 km/h 26.7 km/h 64 % 0.0 mm open2300-1.11 W/m2
07:11 13.2 °C 6.3 °C 1013.4 hPa NW 12.7 km/h 16.9 km/h 63 % 0.0 mm open2300-1.11 W/m2
08:11 12.9 °C 6.2 °C 1013.4 hPa NNE 9.8 km/h 12.2 km/h 64 % 0.0 mm open2300-1.11 W/m2
09:11 13.8 °C 6.4 °C 1013.4 hPa North 11.6 km/h 17.4 km/h 61 % 0.0 mm open2300-1.11 W/m2
10:11 14.9 °C 6.7 °C 1013.8 hPa West 21.6 km/h 21.6 km/h 58 % 0.0 mm open2300-1.11 W/m2
11:11 17.6 °C 6.7 °C 1013.4 hPa NNW 10.3 km/h 31.4 km/h 49 % 0.0 mm open2300-1.11 W/m2
12:11 19.6 °C 6.6 °C 1013.4 hPa NW 33.6 km/h 33.6 km/h 43 % 0.0 mm open2300-1.11 W/m2
13:11 21.1 °C 7.0 °C 1013.4 hPa NNE 4.2 km/h 25.4 km/h 40 % 0.0 mm open2300-1.11 W/m2
14:11 21.5 °C 8.0 °C 1013.4 hPa NW 10.3 km/h 27.2 km/h 42 % 0.0 mm open2300-1.11 W/m2
15:11 21.6 °C 7.8 °C 1013.4 hPa West 16.9 km/h 32.3 km/h 41 % 0.0 mm open2300-1.11 W/m2
16:11 22.1 °C 7.9 °C 1013.1 hPa NW 31.9 km/h 31.9 km/h 40 % 0.0 mm open2300-1.11 W/m2
17:11 22.1 °C 7.5 °C 1013.1 hPa WNW 23 km/h 23 km/h 39 % 0.0 mm open2300-1.11 W/m2
19:11 20.9 °C 7.1 °C 1013.1 hPa NNW 16.3 km/h 25.4 km/h 41 % 0.0 mm open2300-1.11 W/m2
20:11 19.3 °C 6.7 °C 1013.4 hPa NW 29 km/h 43.5 km/h 44 % 0.0 mm open2300-1.11 W/m2
21:11 18.4 °C 6.8 °C 1013.8 hPa NNW 7.6 km/h 26.7 km/h 47 % 0.0 mm open2300-1.11 W/m2
22:11 17.3 °C 6.4 °C 1013.8 hPa NW 11.6 km/h 11.6 km/h 49 % 0.0 mm open2300-1.11 W/m2
23:11 16.4 °C 5.9 °C 1014.1 hPa NNW 5.1 km/h 7.6 km/h 50 % 0.0 mm open2300-1.11 W/m2
Observations météo à CASSIS
WU-History script by Weather Underground - 1 mb